Time;durP1;ratioP1;P1;durP2;ratioP2;P2;SDS_P1;SDS_P2;PMS_P1;PMS_P2;Temp;Humidity;BMP_temperature;BMP_pressure;BME280_temperature;BME280_humidity;BME280_pressure;Samples;Min_cycle;Max_cycle;Signal;HPM_P1;HPM_P2
2021/05/28 00:00:33;;;;;;;5.70;3.40;;;10.40;99.90;;;;;;4170008;28;20210;-71
2021/05/28 00:02:34;;;;;;;5.67;3.50;;;10.30;99.90;;;;;;4172654;28;20546;-71
2021/05/28 00:04:35;;;;;;;6.33;3.97;;;10.30;99.90;;;;;;4160609;28;20588;-71
2021/05/28 00:06:37;;;;;;;7.57;4.00;;;10.30;99.90;;;;;;4162525;28;20211;-71
2021/05/28 00:08:39;;;;;;;6.40;3.70;;;10.30;99.90;;;;;;4162738;28;20298;-71
2021/05/28 00:10:40;;;;;;;5.60;3.33;;;10.30;99.90;;;;;;4166222;28;20211;-70
2021/05/28 00:12:42;;;;;;;6.30;3.60;;;10.30;99.90;;;;;;4156023;28;20215;-71
2021/05/28 00:14:44;;;;;;;5.03;3.43;;;10.30;99.90;;;;;;4161165;28;20219;-70
2021/05/28 00:16:45;;;;;;;5.97;4.07;;;10.30;99.90;;;;;;4166420;28;20207;-71
2021/05/28 00:18:46;;;;;;;8.47;3.67;;;10.30;99.90;;;;;;4167169;28;20572;-71
2021/05/28 00:20:48;;;;;;;10.27;3.53;;;10.30;99.90;;;;;;4164418;28;20449;-70
2021/05/28 00:22:49;;;;;;;11.13;4.13;;;10.30;99.90;;;;;;4151795;28;20489;-70
2021/05/28 00:24:51;;;;;;;4.90;3.50;;;10.30;99.90;;;;;;4149300;28;20240;-71
2021/05/28 00:26:53;;;;;;;5.73;3.47;;;10.30;99.90;;;;;;4155552;28;20218;-72
2021/05/28 00:28:54;;;;;;;6.53;3.43;;;10.30;99.90;;;;;;4170469;28;20476;-72
2021/05/28 00:30:55;;;;;;;7.13;3.67;;;10.30;99.90;;;;;;4165524;28;20895;-72
2021/05/28 00:32:56;;;;;;;5.77;3.50;;;10.30;99.90;;;;;;4170473;28;20207;-72
2021/05/28 00:34:58;;;;;;;6.50;4.13;;;10.30;99.90;;;;;;4172086;28;20499;-71
2021/05/28 00:36:59;;;;;;;5.37;3.43;;;10.30;99.90;;;;;;4170357;28;20481;-73
2021/05/28 00:39:00;;;;;;;6.93;3.93;;;10.30;99.90;;;;;;4167505;28;20215;-72
2021/05/28 00:41:03;;;;;;;5.10;3.20;;;10.30;99.90;;;;;;4160717;28;20214;-72
2021/05/28 00:43:04;;;;;;;5.97;3.40;;;10.30;99.90;;;;;;4168935;28;20675;-72
2021/05/28 00:45:07;;;;;;;5.87;3.40;;;10.30;99.90;;;;;;4175580;28;20230;-70
2021/05/28 00:47:09;;;;;;;5.20;3.30;;;10.30;99.90;;;;;;4170476;28;20241;-71
2021/05/28 00:49:10;;;;;;;5.40;3.83;;;10.30;99.90;;;;;;4169370;28;20214;-71
2021/05/28 00:51:12;;;;;;;6.87;3.47;;;10.30;99.90;;;;;;4159589;28;20212;-71
2021/05/28 00:53:13;;;;;;;5.00;3.67;;;10.30;99.90;;;;;;4151100;28;20204;-71
2021/05/28 00:55:15;;;;;;;5.83;3.07;;;10.30;99.90;;;;;;4162574;28;20227;-70
2021/05/28 00:57:17;;;;;;;6.47;3.43;;;10.30;99.90;;;;;;4163007;28;20267;-70
2021/05/28 00:59:19;;;;;;;4.80;3.13;;;10.30;99.90;;;;;;4164147;28;20631;-70
2021/05/28 01:01:20;;;;;;;4.90;3.20;;;10.30;99.90;;;;;;4166063;28;20216;-70
2021/05/28 01:03:22;;;;;;;6.17;3.60;;;10.30;99.90;;;;;;4175895;28;20235;-70
2021/05/28 01:05:23;;;;;;;5.77;3.53;;;10.30;99.90;;;;;;4163809;28;20981;-70
2021/05/28 01:07:24;;;;;;;5.37;3.67;;;10.30;99.90;;;;;;4161360;28;20466;-70
2021/05/28 01:09:25;;;;;;;6.23;3.53;;;10.30;99.90;;;;;;4166040;28;22624;-71
2021/05/28 01:11:27;;;;;;;5.57;3.20;;;10.40;99.90;;;;;;4174378;28;20296;-71
2021/05/28 01:13:29;;;;;;;7.60;3.47;;;10.40;99.90;;;;;;4168017;28;20208;-71
2021/05/28 01:15:30;;;;;;;4.17;3.10;;;10.30;99.90;;;;;;4167458;28;20237;-71
2021/05/28 01:17:31;;;;;;;7.20;3.50;;;10.30;99.90;;;;;;4168031;28;20207;-71
2021/05/28 01:19:33;;;;;;;4.83;3.03;;;10.30;99.90;;;;;;4147490;28;20681;-71
2021/05/28 01:21:35;;;;;;;5.97;3.77;;;10.40;99.90;;;;;;4162005;28;20208;-71
2021/05/28 01:23:37;;;;;;;6.27;2.73;;;10.40;99.90;;;;;;4155401;28;20598;-71
2021/05/28 01:25:39;;;;;;;3.90;3.03;;;10.40;99.90;;;;;;4148959;28;20289;-70
2021/05/28 01:27:40;;;;;;;14.03;4.30;;;10.40;99.90;;;;;;4176098;28;20206;-70
2021/05/28 01:29:42;;;;;;;5.43;3.30;;;10.40;99.90;;;;;;4166087;28;20476;-70
2021/05/28 01:31:43;;;;;;;7.70;3.67;;;10.40;99.90;;;;;;4167925;28;20211;-70
2021/05/28 01:33:46;;;;;;;5.63;3.40;;;10.40;99.90;;;;;;4163339;28;20225;-70
2021/05/28 01:35:47;;;;;;;7.60;4.43;;;10.40;99.90;;;;;;4151202;28;20232;-71
2021/05/28 01:37:48;;;;;;;9.63;4.10;;;10.40;99.90;;;;;;4151565;28;20294;-70
2021/05/28 01:39:52;;;;;;;5.40;3.70;;;10.40;99.90;;;;;;4158899;28;20206;-69
2021/05/28 01:41:54;;;;;;;7.20;3.83;;;10.40;99.90;;;;;;4170568;28;20929;-70
2021/05/28 01:43:55;;;;;;;7.23;3.67;;;10.40;99.90;;;;;;4166048;28;20210;-70
2021/05/28 01:45:56;;;;;;;7.67;3.87;;;10.30;99.90;;;;;;4171939;28;20226;-69
2021/05/28 01:47:58;;;;;;;5.50;3.97;;;10.40;99.90;;;;;;4164316;28;20215;-70
2021/05/28 01:49:59;;;;;;;10.93;3.80;;;10.30;99.90;;;;;;4149292;28;20282;-70
2021/05/28 01:52:00;;;;;;;9.40;4.27;;;10.30;99.90;;;;;;4154233;28;20219;-70
2021/05/28 01:54:01;;;;;;;6.53;3.80;;;10.30;99.90;;;;;;4170770;28;20207;-71
2021/05/28 01:56:04;;;;;;;6.57;4.40;;;10.30;99.90;;;;;;4171993;28;20567;-70
2021/05/28 01:58:10;;;;;;;6.80;4.03;;;10.30;99.90;;;;;;4167278;28;20211;-70
2021/05/28 02:00:13;;;;;;;5.87;3.77;;;10.30;99.90;;;;;;4166819;28;20253;-70
2021/05/28 02:02:15;;;;;;;7.53;3.97;;;10.30;99.90;;;;;;4171593;28;20235;-70
2021/05/28 02:04:16;;;;;;;6.00;3.57;;;10.30;99.90;;;;;;4167875;28;20206;-68
2021/05/28 02:06:17;;;;;;;5.93;4.17;;;10.30;99.90;;;;;;4170080;28;20250;-70
2021/05/28 02:08:19;;;;;;;5.00;3.60;;;10.20;99.90;;;;;;4170506;28;20214;-71
2021/05/28 02:10:20;;;;;;;9.10;4.40;;;10.20;99.90;;;;;;4151770;28;20455;-71
2021/05/28 02:12:22;;;;;;;6.80;4.20;;;10.20;99.90;;;;;;4147168;28;20617;-71
2021/05/28 02:14:24;;;;;;;7.37;4.87;;;10.10;99.90;;;;;;4156009;28;20832;-71
2021/05/28 02:16:25;;;;;;;7.83;4.07;;;10.20;99.90;;;;;;4166287;28;20262;-70
2021/05/28 02:18:26;;;;;;;7.27;4.43;;;10.00;99.90;;;;;;4166937;28;20470;-70
2021/05/28 02:20:28;;;;;;;7.60;4.47;;;10.00;99.90;;;;;;4159462;28;20543;-70
2021/05/28 02:22:29;;;;;;;7.83;4.77;;;10.00;99.90;;;;;;4161498;28;20486;-70
2021/05/28 02:24:30;;;;;;;10.93;4.57;;;10.00;99.90;;;;;;4162725;28;20219;-71
2021/05/28 02:26:31;;;;;;;8.17;4.37;;;10.00;99.90;;;;;;4171232;28;20218;-71
2021/05/28 02:28:34;;;;;;;8.57;4.60;;;9.90;99.90;;;;;;4166346;28;20846;-71
2021/05/28 02:30:35;;;;;;;6.80;4.37;;;9.90;99.90;;;;;;4166973;28;20477;-71
2021/05/28 02:32:36;;;;;;;9.33;4.60;;;10.00;99.90;;;;;;4172686;28;20461;-71
2021/05/28 02:34:38;;;;;;;8.47;5.03;;;9.90;99.90;;;;;;4169182;28;20830;-71
2021/05/28 02:36:39;;;;;;;10.10;5.00;;;9.80;99.90;;;;;;4177392;28;20487;-72
2021/05/28 02:38:40;;;;;;;8.70;4.87;;;9.80;99.90;;;;;;4170057;28;20853;-70
2021/05/28 02:40:41;;;;;;;7.33;5.00;;;9.80;99.90;;;;;;4164565;28;20467;-70
2021/05/28 02:42:42;;;;;;;7.80;5.67;;;9.80;99.90;;;;;;4170599;28;20500;-71
2021/05/28 02:44:45;;;;;;;8.10;5.40;;;9.80;99.90;;;;;;4170984;28;21024;-71
2021/05/28 02:46:48;;;;;;;11.73;5.80;;;9.80;99.90;;;;;;4173742;28;20477;-71
2021/05/28 02:48:49;;;;;;;8.50;5.53;;;9.70;99.90;;;;;;4169766;28;20581;-71
2021/05/28 02:50:50;;;;;;;11.10;5.93;;;9.70;99.90;;;;;;4158462;28;20466;-71
2021/05/28 02:52:51;;;;;;;8.90;5.70;;;9.70;99.90;;;;;;4146155;28;20462;-71
2021/05/28 02:54:52;;;;;;;9.97;6.30;;;9.60;99.90;;;;;;4154311;28;20893;-71
2021/05/28 02:56:54;;;;;;;9.60;5.60;;;9.70;99.90;;;;;;4156690;28;20465;-70
2021/05/28 02:58:55;;;;;;;12.43;6.33;;;9.60;99.90;;;;;;4168901;28;20469;-69
2021/05/28 03:00:57;;;;;;;13.00;6.50;;;9.60;99.90;;;;;;4170041;28;20967;-71
2021/05/28 03:02:58;;;;;;;10.73;6.10;;;9.60;99.90;;;;;;4172607;28;20996;-71
2021/05/28 03:05:00;;;;;;;10.17;6.10;;;9.50;99.90;;;;;;4164082;28;21018;-71
2021/05/28 03:07:02;;;;;;;9.23;6.23;;;9.60;99.90;;;;;;4157796;28;20466;-71
2021/05/28 03:09:05;;;;;;;10.93;6.33;;;9.60;99.90;;;;;;4165106;28;20477;-71
2021/05/28 03:11:06;;;;;;;13.27;8.00;;;9.60;99.90;;;;;;4166111;28;20465;-72
2021/05/28 03:13:07;;;;;;;14.00;7.17;;;9.60;99.90;;;;;;4164018;28;20470;-71
2021/05/28 03:15:10;;;;;;;13.70;6.93;;;9.50;99.90;;;;;;4173335;28;20493;-71
2021/05/28 03:17:12;;;;;;;8.10;5.90;;;9.60;99.90;;;;;;4171186;28;20484;-71
2021/05/28 03:19:20;;;;;;;11.10;6.43;;;9.60;99.90;;;;;;4169756;28;20978;-71
2021/05/28 03:21:25;;;;;;;14.27;7.60;;;9.50;99.90;;;;;;4164268;28;20896;-71
2021/05/28 03:23:27;;;;;;;11.97;7.30;;;9.60;99.90;;;;;;4176566;28;20493;-71
2021/05/28 03:25:28;;;;;;;12.57;7.87;;;9.60;99.90;;;;;;4170031;28;20504;-71
2021/05/28 03:27:29;;;;;;;16.63;7.57;;;9.50;99.90;;;;;;4168086;28;20497;-72
2021/05/28 03:29:30;;;;;;;15.70;6.97;;;9.50;99.90;;;;;;4158707;28;20466;-71
2021/05/28 03:31:31;;;;;;;13.37;7.53;;;9.50;99.90;;;;;;4167258;28;20469;-71
2021/05/28 03:33:33;;;;;;;10.93;6.97;;;9.60;99.90;;;;;;4162913;28;20512;-71
2021/05/28 03:35:35;;;;;;;11.20;7.50;;;9.50;99.90;;;;;;4160849;28;20497;-71
2021/05/28 03:37:38;;;;;;;16.30;7.67;;;9.60;99.90;;;;;;4160953;28;20524;-71
2021/05/28 03:39:39;;;;;;;13.00;7.70;;;9.60;99.90;;;;;;4153611;28;20504;-71
2021/05/28 03:41:40;;;;;;;13.63;7.83;;;9.60;99.90;;;;;;4161668;28;20476;-70
2021/05/28 03:43:42;;;;;;;11.00;7.23;;;9.60;99.90;;;;;;4169247;28;20865;-71
2021/05/28 03:45:43;;;;;;;11.10;7.57;;;9.60;99.90;;;;;;4166791;28;20799;-72
2021/05/28 03:47:44;;;;;;;11.63;7.67;;;9.60;99.90;;;;;;4162440;28;20588;-71
2021/05/28 03:49:47;;;;;;;13.00;8.30;;;9.60;99.90;;;;;;4161308;28;20472;-72
2021/05/28 03:51:48;;;;;;;13.33;7.83;;;9.60;99.90;;;;;;4161733;28;20956;-72
2021/05/28 03:53:49;;;;;;;13.50;7.53;;;9.60;99.90;;;;;;4155100;28;20968;-72
2021/05/28 03:55:51;;;;;;;12.30;7.33;;;9.60;99.90;;;;;;4149741;28;20528;-72
2021/05/28 03:57:52;;;;;;;12.97;8.13;;;9.60;99.90;;;;;;4160536;28;20465;-73
2021/05/28 03:59:53;;;;;;;13.20;8.40;;;9.70;99.90;;;;;;4161167;28;20490;-72
2021/05/28 04:01:55;;;;;;;14.40;8.57;;;9.60;99.90;;;;;;4158140;28;20451;-72
2021/05/28 04:03:56;;;;;;;13.20;8.30;;;9.70;99.90;;;;;;4165329;28;20489;-72
2021/05/28 04:05:58;;;;;;;13.40;8.70;;;9.70;99.90;;;;;;4162314;28;20497;-71
2021/05/28 04:08:00;;;;;;;13.60;8.13;;;9.70;99.90;;;;;;4164980;28;20532;-71
2021/05/28 04:10:01;;;;;;;12.50;8.60;;;9.70;99.90;;;;;;4163742;28;20466;-70
2021/05/28 04:12:03;;;;;;;14.70;8.50;;;9.70;99.90;;;;;;4173623;28;20473;-71
2021/05/28 04:14:04;;;;;;;12.50;8.47;;;9.80;99.90;;;;;;4164447;28;20473;-71
2021/05/28 04:16:06;;;;;;;14.10;8.93;;;9.80;99.90;;;;;;4172190;28;20576;-71
2021/05/28 04:18:08;;;;;;;18.40;9.33;;;9.80;99.90;;;;;;4159380;28;20458;-71
2021/05/28 04:20:10;;;;;;;14.87;8.77;;;9.80;99.90;;;;;;4157399;28;20551;-72
2021/05/28 04:22:13;;;;;;;14.00;7.97;;;9.80;99.90;;;;;;4165189;28;20823;-71
2021/05/28 04:24:14;;;;;;;14.17;8.33;;;9.80;99.90;;;;;;4155161;28;20478;-71
2021/05/28 04:26:15;;;;;;;17.07;9.80;;;9.80;99.90;;;;;;4163176;28;20493;-71
2021/05/28 04:28:17;;;;;;;16.27;9.87;;;9.80;99.90;;;;;;4168857;28;20927;-71
2021/05/28 04:30:23;;;;;;;13.00;9.00;;;9.90;99.90;;;;;;4158237;28;20204;-70
2021/05/28 04:32:24;;;;;;;12.70;8.47;;;9.90;99.90;;;;;;4168528;28;20548;-71
2021/05/28 04:34:26;;;;;;;15.20;9.23;;;9.80;99.90;;;;;;4169814;28;20970;-71
2021/05/28 04:36:27;;;;;;;14.13;9.27;;;9.90;99.90;;;;;;4172514;28;20469;-71
2021/05/28 04:38:29;;;;;;;13.33;9.40;;;9.90;99.90;;;;;;4171606;28;20537;-71
2021/05/28 04:40:31;;;;;;;14.33;9.80;;;9.90;99.90;;;;;;4161959;28;21000;-71
2021/05/28 04:42:33;;;;;;;14.03;9.83;;;9.90;99.90;;;;;;4148553;28;20494;-69
2021/05/28 04:44:34;;;;;;;14.53;9.80;;;9.90;99.90;;;;;;4156435;28;20829;-70
2021/05/28 04:46:36;;;;;;;15.70;10.00;;;10.00;99.90;;;;;;4174374;28;20472;-70
2021/05/28 04:48:37;;;;;;;19.37;10.23;;;10.00;99.90;;;;;;4163451;28;20985;-72
2021/05/28 04:50:38;;;;;;;16.03;9.40;;;10.00;99.90;;;;;;4162914;28;20827;-72
2021/05/28 04:52:40;;;;;;;13.47;9.10;;;10.10;99.90;;;;;;4162280;28;20509;-71
2021/05/28 04:54:43;;;;;;;13.40;9.60;;;10.00;99.90;;;;;;4165072;28;20488;-71
2021/05/28 04:56:44;;;;;;;14.73;9.47;;;10.10;99.90;;;;;;4161118;28;20468;-71
2021/05/28 04:58:45;;;;;;;16.57;10.50;;;10.10;99.90;;;;;;4162038;28;20554;-72
2021/05/28 05:00:46;;;;;;;15.90;10.07;;;10.10;99.90;;;;;;4162839;28;20219;-72
2021/05/28 05:02:48;;;;;;;13.90;9.43;;;10.10;99.90;;;;;;4164820;28;20230;-71
2021/05/28 05:04:49;;;;;;;12.03;9.10;;;10.10;99.90;;;;;;4164650;28;20476;-71
2021/05/28 05:06:50;;;;;;;14.67;9.70;;;10.10;99.90;;;;;;4163805;28;20976;-72
2021/05/28 05:08:51;;;;;;;16.90;10.57;;;10.20;99.90;;;;;;4158660;28;20481;-72
2021/05/28 05:10:54;;;;;;;16.47;9.60;;;10.20;99.90;;;;;;4157088;28;20629;-71
2021/05/28 05:12:56;;;;;;;13.00;8.87;;;10.20;99.90;;;;;;4156933;28;20588;-71
2021/05/28 05:14:57;;;;;;;13.47;9.37;;;10.20;99.90;;;;;;4155023;28;20239;-71
2021/05/28 05:16:58;;;;;;;15.70;9.77;;;10.30;99.90;;;;;;4151509;28;20814;-71
2021/05/28 05:18:59;;;;;;;13.90;9.37;;;10.30;99.90;;;;;;4151853;28;20243;-72
2021/05/28 05:21:00;;;;;;;12.27;8.93;;;10.30;99.90;;;;;;4154456;28;21001;-71
2021/05/28 05:23:03;;;;;;;16.00;8.83;;;10.30;99.90;;;;;;4158070;28;20502;-72
2021/05/28 05:25:06;;;;;;;14.40;9.47;;;10.30;99.90;;;;;;4164604;28;20489;-70
2021/05/28 05:27:08;;;;;;;15.97;9.23;;;10.40;99.90;;;;;;4165638;28;20470;-71
2021/05/28 05:29:09;;;;;;;13.67;8.40;;;10.50;99.90;;;;;;4161983;28;20373;-72
2021/05/28 05:31:10;;;;;;;13.50;7.90;;;10.50;99.90;;;;;;4166925;28;20642;-71
2021/05/28 05:33:11;;;;;;;12.43;7.97;;;10.50;99.90;;;;;;4163868;28;20489;-71
2021/05/28 05:35:14;;;;;;;10.50;7.07;;;10.60;99.90;;;;;;4164392;28;20603;-71
2021/05/28 05:37:15;;;;;;;10.70;8.00;;;10.60;99.90;;;;;;4167486;28;20266;-72
2021/05/28 05:39:16;;;;;;;12.90;8.13;;;10.60;99.90;;;;;;4164413;28;20261;-72
2021/05/28 05:41:17;;;;;;;13.70;8.73;;;10.60;99.90;;;;;;4158915;28;20469;-71
2021/05/28 05:43:19;;;;;;;10.90;7.40;;;10.60;99.90;;;;;;4154026;28;20231;-71
2021/05/28 05:45:21;;;;;;;11.47;8.03;;;10.60;99.90;;;;;;4157972;28;20704;-72
2021/05/28 05:47:22;;;;;;;11.47;7.80;;;10.60;99.90;;;;;;4160595;28;20219;-71
2021/05/28 05:49:23;;;;;;;12.63;7.60;;;10.70;99.90;;;;;;4161466;28;20213;-71
2021/05/28 05:51:24;;;;;;;11.37;7.60;;;10.70;99.90;;;;;;4159587;28;20207;-71
2021/05/28 05:53:26;;;;;;;11.53;8.73;;;10.70;99.90;;;;;;4162713;28;20214;-71
2021/05/28 05:55:27;;;;;;;13.33;8.03;;;10.70;99.90;;;;;;4160455;28;20232;-72
2021/05/28 05:57:28;;;;;;;10.90;7.40;;;10.80;99.90;;;;;;4161347;28;20227;-71
2021/05/28 05:59:30;;;;;;;11.33;8.13;;;10.90;99.90;;;;;;4161143;28;20211;-71
2021/05/28 06:01:33;;;;;;;11.40;7.60;;;11.00;99.90;;;;;;4162133;28;20751;-72
2021/05/28 06:03:34;;;;;;;11.27;7.40;;;11.10;99.90;;;;;;4163281;28;20218;-71
2021/05/28 06:05:35;;;;;;;9.10;7.20;;;11.10;99.90;;;;;;4162952;28;20665;-72
2021/05/28 06:07:37;;;;;;;8.97;6.50;;;11.20;99.90;;;;;;4168261;28;20676;-71
2021/05/28 06:09:38;;;;;;;8.57;6.57;;;11.30;99.90;;;;;;4155153;28;20211;-71
2021/05/28 06:11:39;;;;;;;10.10;6.87;;;11.30;99.90;;;;;;4156910;28;20215;-70
2021/05/28 06:13:41;;;;;;;9.07;6.30;;;11.40;99.90;;;;;;4150640;28;20731;-71
2021/05/28 06:15:43;;;;;;;9.83;6.50;;;11.40;99.90;;;;;;4153417;28;20268;-72
2021/05/28 06:17:44;;;;;;;9.27;6.27;;;11.40;99.90;;;;;;4159808;28;20212;-72
2021/05/28 06:19:45;;;;;;;10.67;6.27;;;11.40;99.90;;;;;;4157124;28;20211;-72
2021/05/28 06:21:47;;;;;;;8.50;6.17;;;11.50;99.90;;;;;;4159414;28;20220;-72
2021/05/28 06:23:48;;;;;;;373.43;213.87;;;11.50;99.90;;;;;;4151020;28;20240;-73
2021/05/28 06:25:50;;;;;;;90.80;50.40;;;11.50;99.90;;;;;;4151515;28;20286;-72
2021/05/28 06:27:51;;;;;;;32.07;18.87;;;11.50;99.90;;;;;;4155098;28;20217;-71
2021/05/28 06:29:52;;;;;;;15.00;9.93;;;11.50;99.90;;;;;;4157468;28;20213;-73
2021/05/28 06:31:54;;;;;;;12.30;7.33;;;11.40;99.90;;;;;;4158280;28;20354;-72
2021/05/28 06:33:55;;;;;;;10.33;6.27;;;11.30;99.90;;;;;;4156896;28;20247;-72
2021/05/28 06:35:57;;;;;;;11.83;6.00;;;11.30;99.90;;;;;;4154020;28;20251;-72
2021/05/28 06:37:58;;;;;;;12.70;6.70;;;11.30;99.90;;;;;;4163475;28;20219;-72
2021/05/28 06:39:59;;;;;;;9.17;5.80;;;11.40;99.90;;;;;;4158360;28;20713;-72
2021/05/28 06:42:00;;;;;;;9.63;6.87;;;11.40;99.90;;;;;;4157085;28;21253;-72
2021/05/28 06:44:01;;;;;;;9.67;5.37;;;11.50;99.90;;;;;;4163408;28;20240;-71
2021/05/28 06:46:03;;;;;;;7.33;5.37;;;11.50;99.90;;;;;;4153157;28;20906;-72
2021/05/28 06:48:08;;;;;;;8.33;5.30;;;11.60;99.90;;;;;;4160016;28;20907;-71
2021/05/28 06:50:11;;;;;;;8.47;4.80;;;11.60;99.90;;;;;;4155831;28;20353;-71
2021/05/28 06:52:12;;;;;;;9.20;5.10;;;11.70;99.90;;;;;;4158428;28;20213;-72
2021/05/28 06:54:13;;;;;;;6.53;4.60;;;11.80;99.90;;;;;;4153984;28;20216;-72
2021/05/28 06:56:14;;;;;;;6.17;4.77;;;11.90;99.90;;;;;;4149272;28;20236;-73
2021/05/28 06:58:17;;;;;;;6.67;4.70;;;11.90;99.90;;;;;;4148578;28;20216;-72
2021/05/28 07:00:19;;;;;;;12.63;4.90;;;11.90;99.90;;;;;;4144721;28;20227;-72
2021/05/28 07:02:20;;;;;;;6.70;4.03;;;12.00;99.90;;;;;;4159083;28;20368;-72
2021/05/28 07:04:22;;;;;;;9.40;4.20;;;12.10;99.90;;;;;;4162940;28;20585;-72
2021/05/28 07:06:24;;;;;;;4.70;3.60;;;12.10;99.90;;;;;;4163360;28;20215;-72
2021/05/28 07:08:25;;;;;;;6.83;4.47;;;12.20;99.90;;;;;;4161357;28;20224;-72
2021/05/28 07:10:26;;;;;;;7.17;4.13;;;12.30;99.90;;;;;;4160034;28;20264;-72
2021/05/28 07:12:28;;;;;;;9.37;4.70;;;12.20;99.90;;;;;;4158557;28;20211;-72
2021/05/28 07:14:29;;;;;;;7.67;4.10;;;12.20;99.90;;;;;;4155152;28;20628;-71
2021/05/28 07:16:31;;;;;;;6.77;3.77;;;12.30;99.90;;;;;;4155821;28;20221;-72
2021/05/28 07:18:35;;;;;;;6.73;4.13;;;12.30;99.90;;;;;;4156823;28;20239;-72
2021/05/28 07:20:38;;;;;;;4.33;3.60;;;12.40;99.90;;;;;;4157542;28;20213;-71
2021/05/28 07:22:39;;;;;;;4.90;3.70;;;12.50;99.90;;;;;;4155399;28;20223;-71
2021/05/28 07:24:40;;;;;;;4.60;3.27;;;12.50;99.90;;;;;;4158755;28;20614;-71
2021/05/28 07:26:42;;;;;;;3.50;2.97;;;12.60;99.90;;;;;;4198838;22;20302;-74
2021/05/28 07:28:43;;;;;;;4.13;3.17;;;12.70;99.90;;;;;;4178602;28;20210;-75
2021/05/28 07:30:47;;;;;;;6.00;3.13;;;12.80;99.90;;;;;;4175922;28;20213;-74
2021/05/28 07:32:48;;;;;;;9.40;3.20;;;12.90;99.90;;;;;;4173567;28;20221;-74
2021/05/28 07:34:50;;;;;;;6.13;3.20;;;12.90;99.90;;;;;;4175004;28;20216;-74
2021/05/28 07:36:52;;;;;;;5.70;2.93;;;12.90;99.90;;;;;;4175340;28;20234;-74
2021/05/28 07:38:53;;;;;;;9.00;5.50;;;12.90;99.90;;;;;;4172466;28;20261;-77
2021/05/28 07:40:55;;;;;;;160.30;85.07;;;13.00;99.90;;;;;;4181147;28;20226;-74
2021/05/28 07:42:56;;;;;;;32.50;19.90;;;13.00;99.90;;;;;;4171126;28;20229;-75
2021/05/28 07:44:58;;;;;;;12.23;7.90;;;13.10;99.90;;;;;;4171213;28;20866;-74
2021/05/28 07:46:59;;;;;;;5.57;3.93;;;13.20;99.90;;;;;;4169870;28;20601;-74
2021/05/28 07:49:00;;;;;;;3.93;2.50;;;13.40;99.90;;;;;;4175384;28;20218;-74
2021/05/28 07:51:01;;;;;;;5.23;2.77;;;13.40;99.90;;;;;;4171301;28;20233;-74
2021/05/28 07:53:03;;;;;;;4.23;3.20;;;13.40;99.90;;;;;;4170947;28;20274;-74
2021/05/28 07:55:05;;;;;;;4.70;2.80;;;13.30;99.90;;;;;;4170724;28;20583;-74
2021/05/28 07:57:07;;;;;;;3.93;2.80;;;13.20;99.90;;;;;;4171677;28;20575;-74
2021/05/28 07:59:09;;;;;;;3.30;2.87;;;13.10;99.90;;;;;;4173275;28;20221;-75
2021/05/28 08:01:10;;;;;;;3.77;2.83;;;13.10;99.90;;;;;;4173068;28;20212;-74
2021/05/28 08:03:11;;;;;;;4.33;3.00;;;13.20;99.90;;;;;;4173977;28;20794;-74
2021/05/28 08:05:13;;;;;;;4.00;2.87;;;13.40;99.90;;;;;;4173449;28;20217;-75
2021/05/28 08:07:14;;;;;;;5.07;2.63;;;13.50;99.90;;;;;;4172525;28;20217;-75
2021/05/28 08:09:16;;;;;;;4.90;2.90;;;13.60;99.90;;;;;;4170447;28;20210;-73
2021/05/28 08:11:17;;;;;;;4.47;2.70;;;13.60;99.90;;;;;;4171659;28;20221;-74
2021/05/28 08:13:19;;;;;;;3.40;2.67;;;13.70;99.90;;;;;;4171184;28;20209;-74
2021/05/28 08:15:21;;;;;;;3.17;1.90;;;13.80;99.90;;;;;;4172224;28;20693;-74
2021/05/28 08:17:22;;;;;;;4.50;2.43;;;13.80;98.00;;;;;;4170863;28;20210;-74
2021/05/28 08:19:23;;;;;;;4.10;2.07;;;13.80;97.80;;;;;;4174187;28;20205;-74
2021/05/28 08:21:26;;;;;;;5.47;2.30;;;13.90;98.00;;;;;;4171302;28;20210;-74
2021/05/28 08:23:27;;;;;;;4.73;2.60;;;13.90;98.20;;;;;;4167181;28;20790;-75
2021/05/28 08:25:29;;;;;;;4.27;2.30;;;14.10;98.50;;;;;;4169108;28;20307;-75
2021/05/28 08:27:30;;;;;;;5.03;2.50;;;14.10;98.10;;;;;;4171838;28;20280;-75
2021/05/28 08:29:32;;;;;;;5.73;2.43;;;14.10;95.70;;;;;;4170573;28;20876;-75
2021/05/28 08:31:33;;;;;;;4.47;2.50;;;14.10;96.40;;;;;;4169184;28;21214;-75
2021/05/28 08:33:35;;;;;;;5.10;2.53;;;14.00;97.10;;;;;;4175807;28;20252;-74
2021/05/28 08:35:36;;;;;;;4.20;2.60;;;14.00;98.00;;;;;;4175350;28;20276;-74
2021/05/28 08:37:38;;;;;;;3.33;2.40;;;14.00;98.70;;;;;;4171238;28;20440;-74
2021/05/28 08:39:39;;;;;;;6.97;3.00;;;14.00;98.80;;;;;;4172810;28;20225;-74
2021/05/28 08:41:43;;;;;;;6.03;2.60;;;14.00;98.10;;;;;;4171846;28;20217;-74
2021/05/28 08:43:44;;;;;;;4.53;2.97;;;14.00;98.30;;;;;;4169891;28;20346;-74
2021/05/28 08:45:47;;;;;;;5.50;3.47;;;14.00;98.70;;;;;;4172388;28;20238;-75
2021/05/28 08:47:51;;;;;;;8.10;3.10;;;13.90;98.90;;;;;;4174935;28;20263;-74
2021/05/28 08:49:54;;;;;;;5.13;2.70;;;13.80;99.10;;;;;;4173897;28;20772;-74
2021/05/28 08:51:57;;;;;;;5.93;2.93;;;13.70;99.70;;;;;;4177117;28;20301;-74
2021/05/28 08:53:58;;;;;;;3.63;2.60;;;13.70;99.60;;;;;;4184170;28;20501;-75
2021/05/28 08:56:00;;;;;;;5.43;2.77;;;13.70;98.90;;;;;;4183446;28;20287;-74
2021/05/28 08:58:05;;;;;;;4.73;2.53;;;13.70;99.50;;;;;;4175171;28;20214;-74
2021/05/28 09:00:09;;;;;;;4.23;2.33;;;13.80;99.00;;;;;;4177959;28;20217;-74
2021/05/28 09:02:30;;;;;;;4.67;2.40;;;13.90;97.40;;;;;;4172135;28;20259;-74
2021/05/28 09:04:31;;;;;;;4.10;2.10;;;14.00;97.30;;;;;;4173287;28;20290;-74
2021/05/28 09:06:40;;;;;;;3.63;2.40;;;14.10;97.20;;;;;;4172355;28;20241;-75
2021/05/28 09:08:41;;;;;;;3.30;2.43;;;14.30;97.60;;;;;;4174990;28;20705;-74
2021/05/28 09:10:43;;;;;;;2.70;2.30;;;14.50;97.30;;;;;;4175626;28;20214;-74
2021/05/28 09:12:45;;;;;;;4.93;2.50;;;14.70;97.20;;;;;;4175364;28;20659;-75
2021/05/28 09:14:47;;;;;;;4.70;2.80;;;14.90;96.70;;;;;;4177363;28;20262;-74
2021/05/28 09:16:50;;;;;;;33.70;20.23;;;15.10;94.80;;;;;;4175606;28;20260;-75
2021/05/28 09:18:52;;;;;;;32.13;19.00;;;15.20;95.00;;;;;;4171015;28;20391;-74
2021/05/28 09:20:56;;;;;;;15.93;8.23;;;15.30;95.40;;;;;;4180627;28;20835;-75
2021/05/28 09:23:12;;;;;;;7.17;3.80;;;15.50;94.00;;;;;;4182145;28;20243;-75
2021/05/28 09:25:14;;;;;;;3.50;2.40;;;15.60;92.60;;;;;;4172724;28;20262;-74
2021/05/28 09:27:23;;;;;;;3.67;2.10;;;15.60;90.70;;;;;;4183016;28;20207;-75
2021/05/28 09:29:25;;;;;;;3.80;2.10;;;15.70;91.30;;;;;;4176406;28;20302;-75
2021/05/28 09:31:28;;;;;;;4.43;2.50;;;15.90;90.70;;;;;;4181994;28;20218;-74
2021/05/28 09:33:34;;;;;;;3.80;2.13;;;15.90;90.60;;;;;;4176578;28;20219;-74
2021/05/28 09:35:35;;;;;;;3.90;2.27;;;16.10;89.50;;;;;;4177946;28;20240;-74
2021/05/28 09:37:41;;;;;;;4.00;2.40;;;16.10;84.10;;;;;;4176112;28;20231;-74
2021/05/28 09:39:42;;;;;;;3.70;2.30;;;16.00;84.90;;;;;;4175625;28;20225;-74
2021/05/28 09:41:47;;;;;;;2.93;2.37;;;15.90;87.80;;;;;;4186720;28;20225;-74
2021/05/28 09:43:48;;;;;;;3.13;2.50;;;15.90;88.90;;;;;;4166115;28;20231;-75
2021/05/28 09:45:49;;;;;;;3.10;2.07;;;15.90;88.80;;;;;;4166751;28;20229;-75
2021/05/28 09:47:52;;;;;;;2.60;1.80;;;15.90;89.80;;;;;;4171803;28;20580;-75
2021/05/28 09:49:54;;;;;;;2.43;2.00;;;15.90;86.70;;;;;;4170420;28;20217;-75
2021/05/28 09:52:08;;;;;;;3.70;1.90;;;16.00;88.90;;;;;;4184667;28;20724;-74
2021/05/28 09:54:13;;;;;;;5.37;2.77;;;16.10;88.00;;;;;;4180764;28;20212;-75
2021/05/28 09:56:27;;;;;;;7.93;2.30;;;16.30;86.90;;;;;;4173649;28;20236;-75
2021/05/28 09:58:57;;;;;;;2.40;2.00;;;16.40;86.30;;;;;;4175823;28;20222;-75
2021/05/28 10:01:09;;;;;;;3.50;2.20;;;16.50;83.30;;;;;;4177664;28;20911;-75
2021/05/28 10:03:15;;;;;;;4.87;2.00;;;16.50;84.10;;;;;;4171619;28;20255;-75
2021/05/28 10:05:23;;;;;;;3.87;1.97;;;16.50;81.30;;;;;;4173368;28;20652;-75
2021/05/28 10:07:26;;;;;;;3.73;2.27;;;16.60;83.70;;;;;;4172028;28;20215;-75
2021/05/28 10:09:29;;;;;;;4.00;2.20;;;16.70;85.30;;;;;;4178217;28;20236;-76
2021/05/28 10:11:31;;;;;;;4.23;2.20;;;16.90;82.80;;;;;;4174675;28;20211;-76
2021/05/28 10:13:33;;;;;;;4.20;2.20;;;16.90;82.50;;;;;;4173342;28;20210;-76
2021/05/28 10:15:35;;;;;;;3.43;1.90;;;16.90;77.10;;;;;;4167539;28;20234;-76
2021/05/28 10:17:36;;;;;;;4.53;2.20;;;16.80;77.80;;;;;;4166573;28;20654;-75
2021/05/28 10:19:39;;;;;;;3.50;2.00;;;16.60;78.80;;;;;;4176160;28;20211;-75
2021/05/28 10:21:42;;;;;;;3.37;1.80;;;16.50;80.60;;;;;;4179342;28;20220;-74
2021/05/28 10:23:44;;;;;;;3.30;1.80;;;16.50;74.50;;;;;;4181059;28;20407;-74
2021/05/28 10:25:47;;;;;;;2.40;1.70;;;16.30;68.00;;;;;;4176946;28;20325;-74
2021/05/28 10:27:52;;;;;;;3.47;1.67;;;16.20;72.90;;;;;;4173838;28;20222;-76
2021/05/28 10:29:55;;;;;;;2.90;1.70;;;16.20;73.60;;;;;;4174824;28;20213;-75
2021/05/28 10:31:59;;;;;;;2.73;1.70;;;16.30;76.10;;;;;;4167906;28;20213;-75
2021/05/28 10:34:02;;;;;;;2.47;1.70;;;16.40;72.80;;;;;;4173671;28;20242;-75